createdAt,value
2022-10-11T00:00:19.674Z,97739.53
2022-10-11T00:02:46.910Z,97740.03
2022-10-11T00:05:14.167Z,97736.34
2022-10-11T00:07:41.407Z,97738.22
2022-10-11T00:10:09.991Z,97747.72
2022-10-11T00:12:37.301Z,97747.19
2022-10-11T00:15:07.130Z,97750.88
2022-10-11T00:17:35.119Z,97751.69
2022-10-11T00:20:02.329Z,97759.59
2022-10-11T00:22:29.503Z,97764.06
2022-10-11T00:24:58.753Z,97756.41
2022-10-11T00:27:26.068Z,97760.44
2022-10-11T00:29:53.899Z,97759.63
2022-10-11T00:32:21.123Z,97759.66
2022-10-11T00:34:48.423Z,97757.81
2022-10-11T00:37:15.599Z,97757.56
2022-10-11T00:39:42.931Z,97753.59
2022-10-11T00:42:17.505Z,97758.88
2022-10-11T00:44:48.120Z,97754.34
2022-10-11T00:47:18.389Z,97754.63
2022-10-11T00:50:01.735Z,97758.31
2022-10-11T00:52:42.131Z,97753.00
2022-10-11T00:55:17.103Z,97757.72
2022-10-11T00:57:48.684Z,97749.72
2022-10-11T01:00:16.813Z,97751.75
2022-10-11T01:02:44.302Z,97751.47
2022-10-11T01:05:32.226Z,97754.91
2022-10-11T01:08:00.914Z,97760.94
2022-10-11T01:10:29.134Z,97752.72
2022-10-11T01:13:25.850Z,97760.91
2022-10-11T01:16:10.488Z,97760.06
2022-10-11T01:18:48.393Z,97760.84
2022-10-11T01:21:46.785Z,97767.22
2022-10-11T01:24:20.343Z,97766.94
2022-10-11T01:27:06.554Z,97769.84
2022-10-11T01:29:57.211Z,97769.75
2022-10-11T01:32:38.700Z,97772.72
2022-10-11T01:35:24.650Z,97777.00
2022-10-11T01:38:08.058Z,97776.28
2022-10-11T01:40:51.364Z,97776.59
2022-10-11T01:43:20.545Z,97779.75
2022-10-11T01:45:52.653Z,97792.22
2022-10-11T01:48:19.987Z,97782.50
2022-10-11T01:50:50.381Z,97780.97
2022-10-11T01:53:35.886Z,97785.19
2022-10-11T01:56:30.309Z,97788.13
2022-10-11T01:59:22.296Z,97791.31
2022-10-11T02:02:37.595Z,97793.16
2022-10-11T02:05:40.233Z,97791.31
2022-10-11T02:08:20.276Z,97791.84
2022-10-11T02:11:19.880Z,97794.25
2022-10-11T02:14:06.784Z,97796.41
2022-10-11T02:16:44.020Z,97800.91
2022-10-11T02:19:17.159Z,97792.19
2022-10-11T02:21:47.448Z,97790.88
2022-10-11T02:24:27.313Z,97793.25
2022-10-11T02:26:57.391Z,97798.25
2022-10-11T02:29:30.646Z,97794.84
2022-10-11T02:32:00.693Z,97800.41
2022-10-11T02:34:44.938Z,97790.06
2022-10-11T02:37:40.467Z,97792.47
2022-10-11T02:40:32.079Z,97792.19
2022-10-11T02:43:18.265Z,97799.03
2022-10-11T02:46:00.244Z,97796.91
2022-10-11T02:48:29.447Z,97793.78
2022-10-11T02:50:58.784Z,97790.56
2022-10-11T02:53:27.247Z,97791.09
2022-10-11T02:55:56.024Z,97794.50
2022-10-11T02:58:24.685Z,97798.19
2022-10-11T03:00:52.092Z,97803.22
2022-10-11T03:03:19.470Z,97792.63
2022-10-11T03:05:46.699Z,97794.22
2022-10-11T03:08:16.453Z,97783.09
2022-10-11T03:10:44.336Z,97783.34
2022-10-11T03:13:14.825Z,97783.03
2022-10-11T03:15:47.927Z,97786.78
2022-10-11T03:18:15.811Z,97787.28
2022-10-11T03:20:43.379Z,97786.78
2022-10-11T03:23:11.451Z,97788.91
2022-10-11T03:25:39.322Z,97792.31
2022-10-11T03:28:06.792Z,97790.22
2022-10-11T03:30:34.138Z,97790.22
2022-10-11T03:33:01.411Z,97790.75
2022-10-11T03:35:28.604Z,97791.75
2022-10-11T03:37:55.791Z,97796.22
2022-10-11T03:40:22.929Z,97807.34
2022-10-11T03:42:50.412Z,97813.09
2022-10-11T03:45:17.750Z,97815.00
2022-10-11T03:47:44.930Z,97818.22
2022-10-11T03:50:12.189Z,97813.50
2022-10-11T03:52:39.486Z,97812.72
2022-10-11T03:55:07.386Z,97816.13
2022-10-11T03:57:34.646Z,97822.25
2022-10-11T04:00:01.860Z,97826.22
2022-10-11T04:02:29.195Z,97834.16
2022-10-11T04:04:56.421Z,97823.84
2022-10-11T04:07:23.680Z,97823.91
2022-10-11T04:09:52.179Z,97823.13
2022-10-11T04:12:19.897Z,97818.66
2022-10-11T04:14:47.076Z,97824.53
2022-10-11T04:17:14.304Z,97821.06
2022-10-11T04:19:41.508Z,97828.50
2022-10-11T04:22:09.052Z,97824.78
2022-10-11T04:24:36.474Z,97825.56
2022-10-11T04:27:03.840Z,97827.41
2022-10-11T04:29:32.735Z,97831.91
2022-10-11T04:32:00.499Z,97825.78
2022-10-11T04:34:27.796Z,97835.84
2022-10-11T04:36:55.053Z,97837.69
2022-10-11T04:39:22.340Z,97832.09
2022-10-11T04:41:49.564Z,97833.66
2022-10-11T04:44:16.812Z,97835.22
2022-10-11T04:46:44.155Z,97838.13
2022-10-11T04:49:11.603Z,97842.34
2022-10-11T04:51:38.845Z,97847.94
2022-10-11T04:54:06.097Z,97844.00
2022-10-11T04:56:33.483Z,97844.00
2022-10-11T04:59:00.941Z,97846.91
2022-10-11T05:01:28.186Z,97841.88
2022-10-11T05:03:55.558Z,97854.03
2022-10-11T05:06:22.887Z,97855.94
2022-10-11T05:08:50.378Z,97853.78
2022-10-11T05:11:18.098Z,97859.63
2022-10-11T05:13:46.810Z,97859.41
2022-10-11T05:16:15.481Z,97859.94
2022-10-11T05:18:43.477Z,97873.19
2022-10-11T05:21:20.467Z,97875.34
2022-10-11T05:23:50.242Z,97874.28
2022-10-11T05:26:19.135Z,97887.81
2022-10-11T05:28:47.476Z,97885.13
2022-10-11T05:31:15.722Z,97890.16
2022-10-11T05:33:44.367Z,97900.25
2022-10-11T05:36:12.405Z,97903.94
2022-10-11T05:38:40.251Z,97908.94
2022-10-11T05:41:11.034Z,97911.03
2022-10-11T05:43:38.378Z,97917.66
2022-10-11T05:46:06.747Z,97919.59
2022-10-11T05:48:34.466Z,97922.03
2022-10-11T05:51:05.252Z,97925.75
2022-10-11T05:53:33.181Z,97921.22
2022-10-11T05:56:00.809Z,97928.63
2022-10-11T05:58:28.114Z,97927.03
2022-10-11T06:00:57.054Z,97935.25
2022-10-11T06:03:24.572Z,97943.72
2022-10-11T06:05:56.474Z,97941.09
2022-10-11T06:08:24.357Z,97938.44
2022-10-11T06:10:51.615Z,97931.03
2022-10-11T06:13:18.952Z,97938.44
2022-10-11T06:15:46.159Z,97944.28
2022-10-11T06:18:13.896Z,97940.81
2022-10-11T06:20:41.173Z,97948.78
2022-10-11T06:23:08.377Z,97955.16
2022-10-11T06:25:35.823Z,97955.72
2022-10-11T06:28:03.162Z,97959.69
2022-10-11T06:30:30.353Z,97966.31
2022-10-11T06:33:02.397Z,97962.25
2022-10-11T06:35:31.745Z,97962.22
2022-10-11T06:37:59.017Z,97960.91
2022-10-11T06:40:26.206Z,97972.59
2022-10-11T06:42:53.429Z,97969.91
2022-10-11T06:45:20.711Z,97978.41
2022-10-11T06:47:47.838Z,97976.56
2022-10-11T06:50:15.173Z,97986.13
2022-10-11T06:52:42.383Z,97991.41
2022-10-11T06:55:10.096Z,97991.16
2022-10-11T06:57:37.437Z,98002.78
2022-10-11T07:00:11.689Z,98010.47
2022-10-11T07:02:39.895Z,98013.38
2022-10-11T07:05:08.361Z,98009.69
2022-10-11T07:07:35.638Z,98016.06
2022-10-11T07:10:02.928Z,98021.69
2022-10-11T07:12:30.178Z,98028.03
2022-10-11T07:14:57.412Z,98027.53
2022-10-11T07:17:25.578Z,98032.31
2022-10-11T07:19:52.795Z,98031.00
2022-10-11T07:22:19.942Z,98037.63
2022-10-11T07:24:49.183Z,98040.03
2022-10-11T07:27:16.420Z,98042.41
2022-10-11T07:29:43.740Z,98045.31
2022-10-11T07:32:11.256Z,98041.59
2022-10-11T07:34:38.484Z,98042.66
2022-10-11T07:37:05.804Z,98045.06
2022-10-11T07:39:33.097Z,98046.19
2022-10-11T07:42:00.568Z,98053.09
2022-10-11T07:44:27.767Z,98054.97
2022-10-11T07:46:54.972Z,98061.59
2022-10-11T07:49:22.148Z,98058.94
2022-10-11T07:51:49.420Z,98065.03
2022-10-11T07:54:16.610Z,98058.13
2022-10-11T07:56:43.752Z,98077.72
2022-10-11T07:59:11.552Z,98073.19
2022-10-11T08:01:38.908Z,98073.72
2022-10-11T08:04:06.245Z,98071.88
2022-10-11T08:06:33.474Z,98073.16
2022-10-11T08:09:01.942Z,98073.97
2022-10-11T08:11:33.525Z,98081.63
2022-10-11T08:14:01.725Z,98081.09
2022-10-11T08:16:29.211Z,98084.78
2022-10-11T08:18:57.290Z,98086.88
2022-10-11T08:21:26.921Z,98083.66
2022-10-11T08:23:54.271Z,98094.19
2022-10-11T08:26:22.244Z,98096.59
2022-10-11T08:28:49.528Z,98090.78
2022-10-11T08:31:16.942Z,98100.59
2022-10-11T08:33:44.603Z,98096.34
2022-10-11T08:36:12.664Z,98096.97
2022-10-11T08:38:40.776Z,98104.69
2022-10-11T08:42:32.631Z,98111.28
2022-10-11T08:45:12.269Z,98103.91
2022-10-11T08:47:45.837Z,98106.56
2022-10-11T08:50:22.464Z,98111.06
2022-10-11T08:52:59.713Z,98110.78
2022-10-11T08:55:43.976Z,98107.09
2022-10-11T08:58:19.611Z,98113.13
2022-10-11T09:00:50.207Z,98107.75
2022-10-11T09:03:41.596Z,98119.13
2022-10-11T09:06:26.630Z,98119.00
2022-10-11T09:09:21.698Z,98120.47
2022-10-11T09:12:12.014Z,98124.44
2022-10-11T09:15:15.961Z,98128.63
2022-10-11T09:18:14.251Z,98129.97
2022-10-11T09:21:09.282Z,98127.31
2022-10-11T09:23:43.925Z,98122.03
2022-10-11T09:26:35.340Z,98130.75
2022-10-11T09:29:07.107Z,98127.34
2022-10-11T09:31:34.681Z,98133.00
2022-10-11T09:34:14.444Z,98131.31
2022-10-11T09:36:58.089Z,98125.50
2022-10-11T09:39:39.922Z,98129.75
2022-10-11T09:42:10.510Z,98134.69
2022-10-11T09:44:46.738Z,98134.72
2022-10-11T09:47:27.216Z,98139.88
2022-10-11T09:50:14.369Z,98138.81
2022-10-11T09:52:54.201Z,98136.97
2022-10-11T09:55:51.047Z,98141.50
2022-10-11T09:58:32.937Z,98145.56
2022-10-11T10:01:21.933Z,98145.44
2022-10-11T10:04:08.857Z,98152.03
2022-10-11T10:06:36.706Z,98151.50
2022-10-11T10:09:25.714Z,98154.38
2022-10-11T10:11:55.557Z,98148.72
2022-10-11T10:14:30.776Z,98158.75
2022-10-11T10:17:06.289Z,98156.06
2022-10-11T10:19:45.044Z,98159.03
2022-10-11T10:22:27.471Z,98154.09
2022-10-11T10:24:56.337Z,98162.66
2022-10-11T10:27:30.139Z,98154.66
2022-10-11T10:30:13.699Z,98158.81
2022-10-11T10:32:55.731Z,98161.38
2022-10-11T10:35:53.801Z,98164.72
2022-10-11T10:38:30.111Z,98169.16
2022-10-11T10:41:04.350Z,98170.94
2022-10-11T10:43:37.899Z,98175.81
2022-10-11T10:46:20.059Z,98171.03
2022-10-11T10:52:21.772Z,98181.09
2022-10-11T10:55:07.725Z,98181.41
2022-10-11T10:57:47.543Z,98172.34
2022-10-11T11:00:22.985Z,98172.63
2022-10-11T11:03:21.162Z,98177.81
2022-10-11T11:06:06.495Z,98173.59
2022-10-11T11:09:04.619Z,98168.28
2022-10-11T11:11:42.005Z,98167.91
2022-10-11T11:14:52.430Z,98167.25
2022-10-11T11:17:52.368Z,98177.41
2022-10-11T11:20:52.107Z,98178.81
2022-10-11T11:23:54.228Z,98179.97
2022-10-11T11:26:44.295Z,98175.28
2022-10-11T11:29:43.785Z,98173.72
2022-10-11T11:32:21.453Z,98180.91
2022-10-11T11:35:01.216Z,98176.41
2022-10-11T11:37:41.478Z,98182.81
2022-10-11T11:40:34.930Z,98190.22
2022-10-11T11:43:15.007Z,98179.09
2022-10-11T11:46:38.572Z,98181.19
2022-10-11T11:49:21.517Z,98184.66
2022-10-11T11:51:50.426Z,98183.63
2022-10-11T11:54:28.922Z,98186.28
2022-10-11T11:57:02.520Z,98179.13
2022-10-11T11:59:35.545Z,98191.59
2022-10-11T12:02:41.768Z,98189.19
2022-10-11T12:05:13.319Z,98189.75
2022-10-11T12:08:08.384Z,98183.09
2022-10-11T12:10:50.379Z,98185.97
2022-10-11T12:13:51.454Z,98180.69
2022-10-11T12:16:20.210Z,98185.72
2022-10-11T12:19:14.446Z,98179.38
2022-10-11T12:21:44.830Z,98179.63
2022-10-11T12:24:21.141Z,98180.44
2022-10-11T12:26:56.909Z,98171.44
2022-10-11T12:29:44.922Z,98182.56
2022-10-11T12:32:34.808Z,98182.81
2022-10-11T12:35:33.576Z,98182.06
2022-10-11T12:38:21.505Z,98183.09
2022-10-11T12:41:17.019Z,98187.38
2022-10-11T12:43:50.288Z,98185.50
2022-10-11T12:46:29.369Z,98186.56
2022-10-11T12:49:24.516Z,98180.44
2022-10-11T12:52:17.743Z,98183.41
2022-10-11T12:55:27.373Z,98177.78
2022-10-11T12:58:24.046Z,98179.13
2022-10-11T13:00:51.209Z,98180.44
2022-10-11T13:03:39.561Z,98175.56
2022-10-11T13:06:25.132Z,98180.50
2022-10-11T13:09:07.186Z,98176.56
2022-10-11T13:11:46.429Z,98188.38
2022-10-11T13:14:21.998Z,98179.38
2022-10-11T13:17:04.172Z,98182.94
2022-10-11T13:19:36.585Z,98183.41
2022-10-11T13:22:18.233Z,98181.31
2022-10-11T13:24:45.603Z,98186.00
2022-10-11T13:27:23.061Z,98182.94
2022-10-11T13:29:54.312Z,98175.44
2022-10-11T13:32:28.295Z,98178.78
2022-10-11T13:35:01.516Z,98178.03
2022-10-11T13:37:31.305Z,98183.00
2022-10-11T13:39:59.283Z,98183.63
2022-10-11T13:42:31.805Z,98172.97
2022-10-11T13:45:00.810Z,98175.13
2022-10-11T13:47:32.030Z,98176.69
2022-10-11T13:50:15.884Z,98175.53
2022-10-11T13:53:10.833Z,98181.25
2022-10-11T13:56:07.971Z,98177.78
2022-10-11T13:58:46.851Z,98174.66
2022-10-11T14:01:28.367Z,98174.13
2022-10-11T14:04:01.412Z,98168.09
2022-10-11T14:06:56.157Z,98161.75
2022-10-11T14:09:39.181Z,98163.34
2022-10-11T14:12:31.956Z,98167.00
2022-10-11T14:15:01.055Z,98158.25
2022-10-11T14:17:44.410Z,98162.00
2022-10-11T14:20:16.919Z,98160.19
2022-10-11T14:22:44.457Z,98160.97
2022-10-11T14:25:12.970Z,98154.13
2022-10-11T14:27:40.779Z,98161.06
2022-10-11T14:30:27.286Z,98168.75
2022-10-11T14:32:59.498Z,98166.09
2022-10-11T14:35:31.971Z,98166.38
2022-10-11T14:37:59.557Z,98166.38
2022-10-11T14:40:30.534Z,98171.16
2022-10-11T14:42:58.185Z,98164.78
2022-10-11T14:45:25.899Z,98163.97
2022-10-11T14:47:53.606Z,98159.22
2022-10-11T14:50:48.054Z,98164.00
2022-10-11T14:53:15.662Z,98168.25
2022-10-11T14:55:43.532Z,98158.72
2022-10-11T14:58:14.749Z,98162.44
2022-10-11T15:00:42.325Z,98169.59
2022-10-11T15:03:09.946Z,98161.88
2022-10-11T15:05:38.213Z,98170.34
2022-10-11T15:08:07.634Z,98167.94
2022-10-11T15:10:39.867Z,98177.47
2022-10-11T15:13:08.641Z,98176.13
2022-10-11T15:15:41.197Z,98182.19
2022-10-11T15:18:12.616Z,98173.97
2022-10-11T15:20:43.672Z,98179.84
2022-10-11T15:23:12.228Z,98177.19
2022-10-11T15:25:41.524Z,98172.66
2022-10-11T15:28:28.777Z,98181.19
2022-10-11T15:30:56.884Z,98188.06
2022-10-11T15:33:25.676Z,98191.47
2022-10-11T15:35:52.975Z,98196.94
2022-10-11T15:38:24.809Z,98193.63
2022-10-11T15:40:53.777Z,98190.63
2022-10-11T15:43:24.778Z,98188.13
2022-10-11T15:45:52.701Z,98194.09
2022-10-11T15:48:22.960Z,98194.00
2022-10-11T15:50:51.202Z,98191.38
2022-10-11T15:53:37.087Z,98182.88
2022-10-11T15:56:15.227Z,98187.31
2022-10-11T15:58:43.077Z,98196.75
2022-10-11T16:01:18.833Z,98193.44
2022-10-11T16:03:48.581Z,98192.31
2022-10-11T16:06:16.995Z,98195.59
2022-10-11T16:08:44.319Z,98197.97
2022-10-11T16:11:12.838Z,98199.09
2022-10-11T16:13:40.508Z,98198.28
2022-10-11T16:16:09.787Z,98194.78
2022-10-11T16:18:37.619Z,98205.53
2022-10-11T16:21:10.798Z,98205.69
2022-10-11T16:23:38.790Z,98206.13
2022-10-11T16:26:10.021Z,98215.63
2022-10-11T16:28:37.864Z,98215.41
2022-10-11T16:31:11.461Z,98217.78
2022-10-11T16:33:45.948Z,98219.22
2022-10-11T16:36:40.560Z,98215.59
2022-10-11T16:39:14.301Z,98221.94
2022-10-11T16:41:42.710Z,98220.31
2022-10-11T16:44:18.590Z,98226.03
2022-10-11T16:46:48.490Z,98226.03
2022-10-11T16:49:25.985Z,98230.06
2022-10-11T16:51:57.022Z,98227.41
2022-10-11T16:54:24.397Z,98227.66
2022-10-11T16:56:51.620Z,98228.13
2022-10-11T16:59:19.500Z,98230.16
2022-10-11T17:01:46.789Z,98234.22
2022-10-11T17:04:14.273Z,98238.47
2022-10-11T17:06:43.943Z,98233.56
2022-10-11T17:09:11.762Z,98232.06
2022-10-11T17:11:40.719Z,98235.00
2022-10-11T17:14:08.245Z,98234.22
2022-10-11T17:16:36.057Z,98241.00
2022-10-11T17:19:03.983Z,98235.25
2022-10-11T17:21:31.431Z,98241.25
2022-10-11T17:23:58.947Z,98242.13
2022-10-11T17:26:27.919Z,98242.28
2022-10-11T17:28:58.157Z,98249.41
2022-10-11T17:31:27.003Z,98241.31
2022-10-11T17:33:54.960Z,98244.84
2022-10-11T17:36:34.655Z,98247.31
2022-10-11T17:39:07.198Z,98243.50
2022-10-11T17:41:34.974Z,98252.56
2022-10-11T17:44:03.226Z,98247.50
2022-10-11T17:46:34.165Z,98248.19
2022-10-11T17:49:05.503Z,98245.72
2022-10-11T17:51:34.057Z,98244.19
2022-10-11T17:54:01.564Z,98244.53
2022-10-11T17:56:33.692Z,98249.16
2022-10-11T17:59:03.971Z,98247.06
2022-10-11T18:01:31.292Z,98247.81
2022-10-11T18:04:03.170Z,98247.72
2022-10-11T18:06:34.408Z,98253.78
2022-10-11T18:09:03.375Z,98253.16
2022-10-11T18:11:31.691Z,98258.19
2022-10-11T18:13:59.353Z,98257.66
2022-10-11T18:16:29.764Z,98256.38
2022-10-11T18:18:58.321Z,98260.66
2022-10-11T18:21:34.322Z,98264.47
2022-10-11T18:24:06.074Z,98261.84
2022-10-11T18:26:34.491Z,98260.03
2022-10-11T18:29:01.772Z,98260.03
2022-10-11T18:31:31.129Z,98266.47
2022-10-11T18:33:58.777Z,98257.03
2022-10-11T18:36:28.976Z,98257.50
2022-10-11T18:39:05.559Z,98257.59
2022-10-11T18:41:35.312Z,98258.34
2022-10-11T18:44:06.788Z,98265.25
2022-10-11T18:46:34.959Z,98263.88
2022-10-11T18:49:02.944Z,98261.09
2022-10-11T18:51:39.820Z,98260.31
2022-10-11T18:54:12.052Z,98253.91
2022-10-11T18:56:41.703Z,98250.56
2022-10-11T18:59:10.217Z,98254.00
2022-10-11T19:01:42.087Z,98251.81
2022-10-11T19:04:12.804Z,98255.94
2022-10-11T19:06:44.663Z,98258.19
2022-10-11T19:09:24.521Z,98257.84
2022-10-11T19:11:57.574Z,98259.75
2022-10-11T19:14:29.078Z,98255.19
2022-10-11T19:16:58.121Z,98258.28
2022-10-11T19:19:29.388Z,98261.16
2022-10-11T19:21:57.056Z,98267.28
2022-10-11T19:24:27.127Z,98266.88
2022-10-11T19:26:59.726Z,98265.69
2022-10-11T19:29:29.789Z,98266.06
2022-10-11T19:32:00.697Z,98262.38
2022-10-11T19:34:28.963Z,98257.81
2022-10-11T19:36:57.311Z,98256.88
2022-10-11T19:39:25.595Z,98254.84
2022-10-11T19:41:54.017Z,98262.72
2022-10-11T19:44:21.509Z,98262.25
2022-10-11T19:46:52.762Z,98268.53
2022-10-11T19:49:25.914Z,98264.75
2022-10-11T19:51:55.567Z,98272.41
2022-10-11T19:54:23.913Z,98269.44
2022-10-11T19:56:51.634Z,98269.75
2022-10-11T19:59:19.184Z,98276.03
2022-10-11T20:01:52.258Z,98264.50
2022-10-11T20:07:08.041Z,98274.72
2022-10-11T20:09:35.364Z,98270.72
2022-10-11T20:12:02.900Z,98271.75
2022-10-11T20:14:30.319Z,98281.66
2022-10-11T20:16:58.126Z,98272.47
2022-10-11T20:19:31.034Z,98283.31
2022-10-11T20:22:00.565Z,98281.38
2022-10-11T20:24:33.050Z,98272.53
2022-10-11T20:27:04.117Z,98280.56
2022-10-11T20:29:31.814Z,98278.53
2022-10-11T20:31:59.142Z,98282.28
2022-10-11T20:34:27.808Z,98281.53
2022-10-11T20:36:55.321Z,98289.34
2022-10-11T20:39:23.675Z,98284.16
2022-10-11T20:41:51.250Z,98282.47
2022-10-11T20:44:18.717Z,98283.06
2022-10-11T20:46:46.081Z,98287.13
2022-10-11T20:49:13.480Z,98283.50
2022-10-11T20:51:42.909Z,98282.56
2022-10-11T20:54:11.054Z,98285.59
2022-10-11T20:56:38.867Z,98283.81
2022-10-11T20:59:06.777Z,98279.44
2022-10-11T21:01:40.341Z,98277.22
2022-10-11T21:04:17.375Z,98284.22
2022-10-11T21:06:44.822Z,98284.69
2022-10-11T21:09:15.463Z,98278.25
2022-10-11T21:11:44.123Z,98285.31
2022-10-11T21:14:11.768Z,98280.66
2022-10-11T21:16:39.355Z,98286.50
2022-10-11T21:19:06.643Z,98281.97
2022-10-11T21:21:34.756Z,98284.41
2022-10-11T21:24:02.741Z,98282.38
2022-10-11T21:26:31.107Z,98280.56
2022-10-11T21:29:04.043Z,98283.59
2022-10-11T21:31:34.390Z,98285.47
2022-10-11T21:34:02.790Z,98287.75
2022-10-11T21:36:31.033Z,98285.19
2022-10-11T21:38:58.395Z,98282.50
2022-10-11T21:41:30.164Z,98282.50
2022-10-11T21:43:58.201Z,98280.06
2022-10-11T21:47:01.252Z,98280.28
2022-10-11T21:49:20.113Z,98281.09
2022-10-11T21:51:47.405Z,98278.53
2022-10-11T21:54:14.673Z,98281.81
2022-10-11T21:56:42.717Z,98282.66
2022-10-11T21:59:12.435Z,98289.75
2022-10-11T22:01:41.145Z,98282.66
2022-10-11T22:04:08.522Z,98284.72
2022-10-11T22:06:37.469Z,98285.59
2022-10-11T22:09:06.547Z,98281.31
2022-10-11T22:11:33.929Z,98287.75
2022-10-11T22:14:01.267Z,98291.63
2022-10-11T22:16:28.439Z,98289.19
2022-10-11T22:18:55.694Z,98289.50
2022-10-11T22:21:24.739Z,98294.13
2022-10-11T22:23:54.151Z,98298.59
2022-10-11T22:26:25.832Z,98289.50
2022-10-11T22:28:53.490Z,98293.09
2022-10-11T22:31:21.577Z,98285.06
2022-10-11T22:33:52.840Z,98285.13
2022-10-11T22:36:20.102Z,98287.38
2022-10-11T22:38:47.784Z,98286.34
2022-10-11T22:41:15.085Z,98282.53
2022-10-11T22:43:42.676Z,98287.41
2022-10-11T22:46:10.826Z,98278.31
2022-10-11T22:48:38.221Z,98282.78
2022-10-11T22:51:05.757Z,98278.72
2022-10-11T22:53:33.325Z,98272.88
2022-10-11T22:56:00.919Z,98273.88
2022-10-11T22:58:28.348Z,98275.53
2022-10-11T23:00:55.647Z,98273.97
2022-10-11T23:03:23.028Z,98280.06
2022-10-11T23:05:57.870Z,98276.03
2022-10-11T23:08:26.107Z,98268.78
2022-10-11T23:10:53.771Z,98264.19
2022-10-11T23:13:21.162Z,98263.44
2022-10-11T23:15:48.531Z,98263.59
2022-10-11T23:18:17.226Z,98265.84
2022-10-11T23:20:44.629Z,98263.28
2022-10-11T23:23:11.805Z,98267.28
2022-10-11T23:25:39.127Z,98258.19
2022-10-11T23:28:06.351Z,98269.28
2022-10-11T23:30:33.793Z,98271.47
2022-10-11T23:33:01.058Z,98271.50
2022-10-11T23:35:28.188Z,98267.50
2022-10-11T23:37:55.455Z,98278.59
2022-10-11T23:40:22.743Z,98270.94
2022-10-11T23:42:49.996Z,98270.56
2022-10-11T23:45:17.224Z,98274.16
2022-10-11T23:47:44.392Z,98270.56
2022-10-11T23:50:11.617Z,98276.78
2022-10-11T23:52:38.883Z,98279.84
2022-10-11T23:55:06.435Z,98280.91
2022-10-11T23:57:34.140Z,98282.13
